Beaufort, SC

12:51 PM EDT on September 23, 2014 (GMT -0400)
Hilton Head | Change Station
CLOSE
Current Station
Airport
Location: Hilton Head Island,
Elevation: 20 ft
Nearby Weather Stations

Elev 20 ft 32.22 °N, 80.70 °W | Updated 1 hour ago

Overcast
Overcast
70 °F
Feels Like 70 °F
N
9
Wind Variable Wind from North

Today
High -- | Low -- °F
--% Chance of Precip.
Yesterday
High -- | Low -- °F
Precip. -- in
7:11 AM 7:17 PM
Waning Crescent, 0% visible
Pressure 30.15 in
Visibility 10.0 miles
Clouds Overcast 1000 ft
Dew Point 64 °F
Humidity 83%
Rainfall 0.00 in
Snow Depth Not available.
UV 3 out of 12
Pollen 6.90 out of 12
Air Quality Not available.
Flu Activity Not available.
METAR KHXD 231550Z 01008KT 10SM OVC010 21/18 A3015

More Conditions Fewer Conditions

Pressure 30.15 in
Visibility 10.0 miles
Clouds Overcast 1000 ft
Dew Point 64 °F
Humidity 83%
Rainfall 0.00 in
Snow Depth Not available.
UV 3 out of 12
Pollen 6.90 out of 12
Air Quality Not available.
Flu Activity Not available.
METAR KHXD 231550Z 01008KT 10SM OVC010 21/18 A3015

More Conditions Fewer Conditions

10-Day Weather Forecast

Almanac

Astronomy

Sep. 23, 2014 Rise Set
Actual Time 7:11 AM EDT 7:17 PM EDT
Civil Twilight 6:46 AM EDT 7:42 PM EDT
Nautical Twilight 6:18 AM EDT 8:10 PM EDT
Astronomical Twilight 5:49 AM EDT 8:39 PM EDT
Moon 6:35 AM EDT 6:56 PM EDT
Length of Visible Light 12h 55m
Length of Day
12h 06m
Tomorrow will be 1m 59s shorter.
Waning Crescent, 0% of the Moon is Illuminated
Today
Waning Crescent
Sep 24
New
Oct 1
First Quarter
Oct 8
Full
Oct 15
Last Quarter

Today's Extremes

State Highs State Lows

Community

WunderPhotos

Upload Photos

1,755,750 photos uploaded!

WunderBlogs® & News

Nearby

Snow Depth

Station Depth Elevation
No new snow has been reported.

Earthquake Activity

City Distance Mag. Time & Date
No recent earthquake activity has been reported nearby.
Minimum magnitude displayed is 2.5.

Coastal Water Temperatures

Place Temperature
No Stations Reporting

Nearby Weather Stations